Time;durP1;ratioP1;P1;durP2;ratioP2;P2;SDS_P1;SDS_P2;PMS_P1;PMS_P2;Temp;Humidity;BMP_temperature;BMP_pressure;BME280_temperature;BME280_humidity;BME280_pressure;Samples;Min_cycle;Max_cycle;Signal;HPM_P1;HPM_P2
2022/03/22 00:00:56;;;;;;;;;;;;;;;18.46;59.36;102495.34;5003661;28;1669;-36
2022/03/22 00:03:29;;;;;;;;;;;;;;;18.46;59.13;102494.44;4999561;28;1915;-36
2022/03/22 00:05:59;;;;;;;;;;;;;;;18.46;59.05;102486.41;5005111;28;1849;-36
2022/03/22 00:08:29;;;;;;;;;;;;;;;18.46;58.22;102489.09;5013205;28;1100;-36
2022/03/22 00:10:55;;;;;;;;;;;;;;;18.43;58.76;102489.28;5010563;28;1783;-36
2022/03/22 00:13:25;;;;;;;;;;;;;;;18.40;58.39;102487.66;5013078;28;1674;-36
2022/03/22 00:15:56;;;;;;;;;;;;;;;18.41;58.54;102486.69;5009167;28;1475;-36
2022/03/22 00:18:26;;;;;;;;;;;;;;;18.39;58.28;102483.25;4997584;28;1810;-36
2022/03/22 00:20:56;;;;;;;;;;;;;;;18.41;58.41;102484.00;5005815;28;1584;-37
2022/03/22 00:23:25;;;;;;;;;;;;;;;18.43;58.10;102478.56;5007193;28;1910;-36
2022/03/22 00:25:53;;;;;;;;;;;;;;;18.37;58.70;102476.25;5006229;28;1688;-36
2022/03/22 00:28:21;;;;;;;;;;;;;;;18.36;58.45;102467.34;5006261;28;1301;-36
2022/03/22 00:30:50;;;;;;;;;;;;;;;18.35;58.87;102459.41;4998609;28;1864;-36
2022/03/22 00:33:17;;;;;;;;;;;;;;;18.38;57.87;102459.22;5001626;28;2039;-36
2022/03/22 00:36:05;;;;;;;;;;;;;;;18.35;58.32;102459.41;4999349;28;1495;-36
2022/03/22 00:38:33;;;;;;;;;;;;;;;18.36;58.15;102470.00;5003625;28;1323;-36
2022/03/22 00:41:01;;;;;;;;;;;;;;;18.35;58.71;102459.41;5009066;28;1744;-36
2022/03/22 00:43:27;;;;;;;;;;;;;;;18.33;58.12;102456.81;5007053;28;1985;-36
2022/03/22 00:45:56;;;;;;;;;;;;;;;18.33;58.63;102456.81;5003363;28;1964;-36
2022/03/22 00:48:26;;;;;;;;;;;;;;;18.35;58.83;102451.38;5002448;28;1967;-36
2022/03/22 00:50:53;;;;;;;;;;;;;;;18.34;58.45;102453.16;5002459;28;1585;-37
2022/03/22 00:53:21;;;;;;;;;;;;;;;18.34;58.44;102457.66;4996168;28;1431;-36
2022/03/22 00:55:54;;;;;;;;;;;;;;;18.32;58.68;102456.91;5004937;28;1602;-36
2022/03/22 00:58:21;;;;;;;;;;;;;;;18.29;58.16;102441.88;5005139;28;1956;-36
2022/03/22 01:00:49;;;;;;;;;;;;;;;18.30;58.28;102446.28;5014139;28;1233;-36
2022/03/22 01:03:18;;;;;;;;;;;;;;;18.31;58.21;102453.38;5007903;28;1918;-36
2022/03/22 01:05:52;;;;;;;;;;;;;;;18.28;58.75;102448.19;5000268;28;1384;-36
2022/03/22 01:08:23;;;;;;;;;;;;;;;18.27;58.41;102452.69;5010534;28;1422;-36
2022/03/22 01:10:55;;;;;;;;;;;;;;;18.28;58.74;102453.53;5021166;28;1748;-36
2022/03/22 01:13:23;;;;;;;;;;;;;;;18.26;57.92;102459.00;5028234;28;1763;-36
2022/03/22 01:18:41;;;;;;;;;;;;;;;18.24;58.79;102442.16;5005630;28;2257;-36
2022/03/22 01:21:08;;;;;;;;;;;;;;;18.20;58.83;102440.59;4999633;28;1632;-36
2022/03/22 01:23:34;;;;;;;;;;;;;;;18.22;58.77;102440.50;5013051;28;1902;-36
2022/03/22 01:26:06;;;;;;;;;;;;;;;18.22;58.50;102432.47;5004898;28;1079;-36
2022/03/22 01:28:34;;;;;;;;;;;;;;;18.21;58.15;102434.28;5015434;28;2014;-36
2022/03/22 01:31:01;;;;;;;;;;;;;;;18.50;58.33;102431.69;5013059;28;1650;-36
2022/03/22 01:33:30;;;;;;;;;;;;;;;19.02;56.72;102447.34;5012879;28;1705;-36
2022/03/22 01:35:59;;;;;;;;;;;;;;;19.13;57.26;102435.94;4996745;28;1765;-36
2022/03/22 01:38:27;;;;;;;;;;;;;;;19.22;56.44;102419.28;5019679;28;1480;-36
2022/03/22 01:40:57;;;;;;;;;;;;;;;19.32;56.19;102430.28;5007907;28;1755;-36
2022/03/22 01:43:27;;;;;;;;;;;;;;;19.41;56.47;102428.84;5007003;28;1969;-36
2022/03/22 01:45:54;;;;;;;;;;;;;;;19.48;56.41;102422.13;5012320;28;1840;-36
2022/03/22 01:48:21;;;;;;;;;;;;;;;19.47;55.89;102423.94;5011314;28;1478;-36
2022/03/22 01:50:50;;;;;;;;;;;;;;;19.43;55.93;102417.03;5005336;28;1962;-36
2022/03/22 01:53:17;;;;;;;;;;;;;;;19.41;56.71;102421.63;5014488;28;996;-36
2022/03/22 01:55:46;;;;;;;;;;;;;;;19.36;56.66;102431.81;5007886;28;1974;-36
2022/03/22 01:58:16;;;;;;;;;;;;;;;19.33;56.75;102426.63;5007262;28;1702;-36
2022/03/22 02:05:51;;;;;;;;;;;;;;;19.24;55.97;102421.88;5002968;28;1492;-36
2022/03/22 02:06:27;;;;;;;;;;;;;;;19.17;57.31;102428.56;5000052;28;1599;-36
2022/03/22 02:08:54;;;;;;;;;;;;;;;19.08;57.07;102422.84;5009734;28;1641;-36
2022/03/22 02:11:29;;;;;;;;;;;;;;;19.01;57.14;102417.94;5007902;28;1463;-36
2022/03/22 02:13:56;;;;;;;;;;;;;;;18.95;57.34;102421.84;5005044;28;1465;-38
2022/03/22 02:16:28;;;;;;;;;;;;;;;18.89;57.01;102414.19;5003089;28;992;-36
2022/03/22 02:18:56;;;;;;;;;;;;;;;18.85;57.59;102416.19;5007840;28;1823;-36
2022/03/22 02:21:26;;;;;;;;;;;;;;;18.81;57.64;102413.81;5000029;28;1824;-36
2022/03/22 02:23:56;;;;;;;;;;;;;;;18.77;56.94;102404.22;5011399;28;1979;-36
2022/03/22 02:26:26;;;;;;;;;;;;;;;18.75;57.43;102420.38;5007677;28;1445;-37
2022/03/22 02:28:53;;;;;;;;;;;;;;;18.71;57.51;102413.47;5028101;28;1627;-36
2022/03/22 02:31:21;;;;;;;;;;;;;;;18.69;57.59;102418.91;5003251;28;1799;-36
2022/03/22 02:33:49;;;;;;;;;;;;;;;18.64;57.80;102410.31;5002754;28;1755;-36
2022/03/22 02:36:21;;;;;;;;;;;;;;;18.65;57.01;102424.56;5010311;28;2117;-37
2022/03/22 02:38:49;;;;;;;;;;;;;;;18.60;57.95;102422.19;5006598;28;1672;-36
2022/03/22 02:41:20;;;;;;;;;;;;;;;18.54;58.08;102411.81;5000223;28;1803;-37
2022/03/22 02:43:50;;;;;;;;;;;;;;;18.52;58.03;102403.00;5008950;28;1979;-36
2022/03/22 02:46:18;;;;;;;;;;;;;;;18.54;57.50;102417.16;5002683;28;1894;-36
2022/03/22 02:48:45;;;;;;;;;;;;;;;18.51;57.15;102412.00;5007490;28;1837;-37
2022/03/22 02:51:22;;;;;;;;;;;;;;;18.44;57.52;102419.56;5002312;28;1835;-36
2022/03/22 02:53:50;;;;;;;;;;;;;;;18.44;57.41;102413.31;4998742;28;1702;-36
2022/03/22 02:56:33;;;;;;;;;;;;;;;18.48;57.35;102414.84;5009190;28;1565;-37
2022/03/22 02:59:15;;;;;;;;;;;;;;;18.46;57.46;102414.09;5002507;28;1421;-36
2022/03/22 03:01:51;;;;;;;;;;;;;;;18.44;57.80;102426.72;5139733;23;3962;-36
2022/03/22 03:04:17;;;;;;;;;;;;;;;18.42;57.90;102417.91;5064019;28;1910;-36
2022/03/22 03:06:45;;;;;;;;;;;;;;;18.41;57.82;102425.09;5063091;28;1411;-36
2022/03/22 03:09:15;;;;;;;;;;;;;;;18.38;57.54;102417.25;5063961;28;1815;-36
2022/03/22 03:11:41;;;;;;;;;;;;;;;18.37;57.35;102420.00;5061313;28;2129;-36
2022/03/22 03:16:55;;;;;;;;;;;;;;;18.37;57.79;102417.34;5070468;28;1763;-36
2022/03/22 03:19:23;;;;;;;;;;;;;;;18.35;57.74;102416.56;5058404;28;1450;-36
2022/03/22 03:21:50;;;;;;;;;;;;;;;18.35;57.75;102409.38;5069499;28;1778;-36
2022/03/22 03:24:17;;;;;;;;;;;;;;;18.31;57.90;102404.31;5076868;28;1911;-36
2022/03/22 03:26:52;;;;;;;;;;;;;;;18.31;57.62;102425.72;5065313;28;1950;-36
2022/03/22 03:29:21;;;;;;;;;;;;;;;18.29;57.71;102424.00;5063935;28;1849;-36
2022/03/22 03:31:49;;;;;;;;;;;;;;;18.26;57.72;102408.13;5068087;28;1783;-36
2022/03/22 03:34:17;;;;;;;;;;;;;;;18.27;57.44;102420.53;5064674;28;1667;-36
2022/03/22 03:36:46;;;;;;;;;;;;;;;18.26;57.08;102424.19;5062793;28;1324;-36
2022/03/22 03:39:16;;;;;;;;;;;;;;;18.25;57.01;102425.13;5060726;28;1446;-37
2022/03/22 03:47:25;;;;;;;;;;;;;;;18.21;57.28;102412.88;4999579;28;1625;-36
2022/03/22 03:50:00;;;;;;;;;;;;;;;18.20;57.48;102413.81;5004650;28;1456;-36
2022/03/22 03:52:29;;;;;;;;;;;;;;;18.21;57.68;102431.63;5011814;28;1102;-36
2022/03/22 03:54:57;;;;;;;;;;;;;;;18.16;57.09;102424.78;5020190;28;1991;-36
2022/03/22 03:57:26;;;;;;;;;;;;;;;18.19;57.23;102422.81;5058751;28;1706;-36
2022/03/22 03:59:54;;;;;;;;;;;;;;;18.18;57.06;102410.38;5060397;28;1407;-36
2022/03/22 04:02:22;;;;;;;;;;;;;;;18.15;57.05;102402.53;5061755;28;1861;-36
2022/03/22 04:04:51;;;;;;;;;;;;;;;18.17;57.42;102429.22;5055844;28;1902;-36
2022/03/22 04:07:23;;;;;;;;;;;;;;;18.16;57.45;102412.25;5063571;28;1125;-36
2022/03/22 04:09:55;;;;;;;;;;;;;;;18.17;57.41;102430.06;5071089;28;1825;-36
2022/03/22 04:12:24;;;;;;;;;;;;;;;18.15;57.11;102425.78;5068866;28;1580;-36
2022/03/22 04:14:53;;;;;;;;;;;;;;;18.13;57.78;102412.47;5058821;28;1933;-36
2022/03/22 04:17:22;;;;;;;;;;;;;;;18.15;57.46;102421.25;5074229;28;1351;-36
2022/03/22 04:19:49;;;;;;;;;;;;;;;18.16;57.60;102414.09;5073958;28;2016;-36
2022/03/22 04:22:18;;;;;;;;;;;;;;;18.11;57.02;102430.44;5066807;28;2085;-36
2022/03/22 04:24:54;;;;;;;;;;;;;;;18.11;57.24;102417.03;5055676;28;1973;-37
2022/03/22 04:33:02;;;;;;;;;;;;;;;18.10;57.18;102434.03;5009549;28;1751;-36
2022/03/22 04:35:29;;;;;;;;;;;;;;;18.10;57.70;102423.34;5064789;28;1639;-36
2022/03/22 04:37:56;;;;;;;;;;;;;;;18.06;57.54;102420.00;5072101;28;1163;-36
2022/03/22 04:40:29;;;;;;;;;;;;;;;18.06;57.21;102428.03;5068506;28;1425;-36
2022/03/22 04:42:58;;;;;;;;;;;;;;;18.06;57.29;102427.16;5064361;28;2033;-36
2022/03/22 04:45:46;;;;;;;;;;;;;;;18.02;56.96;102429.13;5060335;28;1971;-36
2022/03/22 04:48:16;;;;;;;;;;;;;;;18.03;57.55;102419.31;5059080;28;1580;-36
2022/03/22 04:50:43;;;;;;;;;;;;;;;18.03;57.49;102432.69;5061597;28;1264;-36
2022/03/22 04:58:52;;;;;;;;;;;;;;;18.08;57.60;102435.94;5070450;28;1163;-36
2022/03/22 05:01:28;;;;;;;;;;;;;;;18.05;56.83;102420.09;5061644;28;1445;-37
2022/03/22 05:03:56;;;;;;;;;;;;;;;18.27;57.50;102427.72;5051201;28;1910;-37
2022/03/22 05:06:28;;;;;;;;;;;;;;;18.47;56.03;102426.53;5039987;28;1612;-36
2022/03/22 05:08:58;;;;;;;;;;;;;;;19.00;56.36;102426.94;5036734;28;2026;-37
2022/03/22 05:11:31;;;;;;;;;;;;;;;19.06;55.58;102432.78;5047875;28;1487;-37
2022/03/22 05:14:07;;;;;;;;;;;;;;;19.22;54.96;102416.59;5043431;28;1668;-36
2022/03/22 05:16:39;;;;;;;;;;;;;;;19.36;55.16;102413.03;5053937;28;1541;-36
2022/03/22 05:19:05;;;;;;;;;;;;;;;19.54;54.60;102419.06;5050611;28;1600;-36
2022/03/22 05:21:32;;;;;;;;;;;;;;;19.78;54.06;102407.72;5043583;28;1764;-36
2022/03/22 05:24:02;;;;;;;;;;;;;;;19.98;53.36;102399.19;5063827;28;1910;-36
2022/03/22 05:26:45;;;;;;;;;;;;;;;20.18;52.40;102400.53;5039947;28;1527;-37
2022/03/22 05:29:13;;;;;;;;;;;;;;;20.29;52.44;102423.13;5053708;28;1265;-37
2022/03/22 05:31:45;;;;;;;;;;;;;;;20.32;52.71;102433.69;5043730;28;1639;-36
2022/03/22 05:34:13;;;;;;;;;;;;;;;20.23;53.45;102425.28;5051151;28;1464;-36
2022/03/22 05:36:40;;;;;;;;;;;;;;;20.29;53.42;102425.81;5051049;28;1863;-37
2022/03/22 05:39:07;;;;;;;;;;;;;;;20.34;55.06;102416.47;5051547;28;1435;-36
2022/03/22 05:41:35;;;;;;;;;;;;;;;20.32;54.68;102431.00;5044142;28;1665;-37
2022/03/22 05:44:02;;;;;;;;;;;;;;;20.35;55.17;102422.72;5044019;28;1914;-37
2022/03/22 05:46:28;;;;;;;;;;;;;;;20.14;55.42;102417.84;5044975;28;1063;-37
2022/03/22 05:48:55;;;;;;;;;;;;;;;20.14;55.95;102404.41;5040926;28;1732;-37
2022/03/22 05:51:22;;;;;;;;;;;;;;;20.07;55.48;102438.00;5050494;28;1587;-37
2022/03/22 05:53:48;;;;;;;;;;;;;;;20.00;56.04;102423.28;5052318;28;1417;-37
2022/03/22 05:56:15;;;;;;;;;;;;;;;20.27;56.06;102423.22;5049142;28;1490;-37
2022/03/22 05:58:43;;;;;;;;;;;;;;;20.29;55.96;102436.56;5042387;28;1011;-37
2022/03/22 06:01:10;;;;;;;;;;;;;;;20.03;56.82;102420.38;5046530;28;1880;-37
2022/03/22 06:03:37;;;;;;;;;;;;;;;20.05;55.78;102439.91;5061829;28;1906;-37
2022/03/22 06:06:05;;;;;;;;;;;;;;;20.06;56.99;102415.66;5062666;28;1440;-37
2022/03/22 06:08:34;;;;;;;;;;;;;;;20.03;56.40;102436.47;5071506;28;1147;-36
2022/03/22 06:11:01;;;;;;;;;;;;;;;20.04;56.58;102433.69;5063366;28;1856;-37
2022/03/22 06:13:28;;;;;;;;;;;;;;;20.25;56.09;102439.47;5061703;28;1612;-37
2022/03/22 06:15:55;;;;;;;;;;;;;;;20.18;56.66;102435.47;5067635;28;2438;-37
2022/03/22 06:18:22;;;;;;;;;;;;;;;20.16;57.59;102409.69;5070191;28;1610;-37
2022/03/22 06:20:48;;;;;;;;;;;;;;;20.21;56.75;102427.22;5057140;28;2057;-37
2022/03/22 06:23:17;;;;;;;;;;;;;;;20.16;56.75;102425.78;5064624;28;1103;-37
2022/03/22 06:25:44;;;;;;;;;;;;;;;20.25;55.29;102425.16;5071122;28;1902;-36
2022/03/22 06:28:14;;;;;;;;;;;;;;;20.05;52.91;102426.50;5055711;28;1704;-37
2022/03/22 06:30:42;;;;;;;;;;;;;;;19.98;55.56;102418.00;5067123;28;1249;-37
2022/03/22 06:33:13;;;;;;;;;;;;;;;19.88;55.08;102405.28;5062584;28;1420;-36
2022/03/22 06:35:40;;;;;;;;;;;;;;;19.96;55.07;102421.75;5065554;28;1510;-38
2022/03/22 06:38:07;;;;;;;;;;;;;;;20.02;55.03;102399.88;5063474;28;1135;-37
2022/03/22 06:40:34;;;;;;;;;;;;;;;19.87;55.70;102415.16;5065924;28;1936;-37
2022/03/22 06:43:01;;;;;;;;;;;;;;;19.80;56.42;102420.06;5058962;28;1401;-37
2022/03/22 06:45:28;;;;;;;;;;;;;;;19.92;55.24;102406.81;5064211;28;2001;-37
2022/03/22 06:47:54;;;;;;;;;;;;;;;19.97;55.06;102421.63;5062946;28;1666;-37
2022/03/22 06:50:24;;;;;;;;;;;;;;;20.01;55.23;102393.59;5067568;28;1471;-38
2022/03/22 06:52:51;;;;;;;;;;;;;;;20.02;55.30;102424.03;5073200;28;1601;-37
2022/03/22 06:55:22;;;;;;;;;;;;;;;19.94;55.36;102399.50;5068938;28;1578;-38
2022/03/22 06:57:51;;;;;;;;;;;;;;;19.86;56.03;102414.28;5069341;28;1498;-38
2022/03/22 07:00:20;;;;;;;;;;;;;;;19.82;57.23;102395.81;5060986;28;1519;-37
2022/03/22 07:02:48;;;;;;;;;;;;;;;19.79;56.47;102388.81;5069139;28;1540;-38
2022/03/22 07:05:15;;;;;;;;;;;;;;;19.75;56.30;102378.38;5066706;28;1969;-37
2022/03/22 07:07:43;;;;;;;;;;;;;;;19.81;56.56;102402.97;5064311;28;1069;-37
2022/03/22 07:10:11;;;;;;;;;;;;;;;19.84;56.15;102410.00;5065570;28;1754;-37
2022/03/22 07:12:46;;;;;;;;;;;;;;;19.79;57.35;102386.13;5062954;28;1744;-38
2022/03/22 07:15:13;;;;;;;;;;;;;;;19.85;57.35;102379.50;5069457;28;1401;-37
2022/03/22 07:17:40;;;;;;;;;;;;;;;19.81;56.36;102397.63;5066602;28;1437;-39
2022/03/22 07:20:07;;;;;;;;;;;;;;;19.85;56.58;102395.59;5064970;28;1456;-37
2022/03/22 07:22:34;;;;;;;;;;;;;;;19.89;57.73;102386.38;5069183;28;1572;-37
2022/03/22 07:25:02;;;;;;;;;;;;;;;19.64;53.85;102376.38;5061270;28;2247;-37
2022/03/22 07:27:28;;;;;;;;;;;;;;;19.48;56.40;102379.22;5064920;28;1437;-37
2022/03/22 07:29:56;;;;;;;;;;;;;;;19.53;55.95;102379.75;5060098;28;1631;-37
2022/03/22 07:32:24;;;;;;;;;;;;;;;19.54;54.47;102361.84;5064422;28;1675;-37
2022/03/22 07:34:51;;;;;;;;;;;;;;;19.57;54.77;102378.59;5061687;28;1158;-37
2022/03/22 07:37:17;;;;;;;;;;;;;;;19.50;54.44;102368.34;5064054;28;1908;-37
2022/03/22 07:39:44;;;;;;;;;;;;;;;19.44;54.79;102356.22;5057958;28;1770;-37
2022/03/22 07:42:12;;;;;;;;;;;;;;;19.47;53.92;102359.53;5059709;28;1619;-37
2022/03/22 07:44:39;;;;;;;;;;;;;;;19.43;53.25;102344.59;5063953;28;1918;-37
2022/03/22 07:47:06;;;;;;;;;;;;;;;19.43;53.35;102338.38;5062800;28;2075;-37
2022/03/22 07:55:00;;;;;;;;;;;;;;;19.44;52.74;102316.84;5061884;28;1755;-38
2022/03/22 07:57:28;;;;;;;;;;;;;;;19.31;52.71;102339.19;5064923;28;1071;-37
2022/03/22 07:59:55;;;;;;;;;;;;;;;19.29;52.80;102333.91;5066074;28;1930;-37
2022/03/22 08:02:21;;;;;;;;;;;;;;;19.34;50.99;102313.03;5066693;28;1822;-37
2022/03/22 08:04:49;;;;;;;;;;;;;;;19.22;50.95;102341.50;5067342;28;1988;-38
2022/03/22 08:07:16;;;;;;;;;;;;;;;19.24;52.57;102311.91;5065021;28;1081;-37
2022/03/22 08:09:45;;;;;;;;;;;;;;;19.26;51.55;102315.34;5058838;28;1818;-38
2022/03/22 08:12:12;;;;;;;;;;;;;;;19.24;51.41;102325.31;5066502;28;1588;-37
2022/03/22 08:14:39;;;;;;;;;;;;;;;19.00;49.85;102333.09;5067476;28;1636;-37
2022/03/22 08:17:06;;;;;;;;;;;;;;;19.00;51.02;102317.88;5067051;28;1800;-37
2022/03/22 08:19:32;;;;;;;;;;;;;;;19.10;50.39;102320.84;5065450;28;1613;-37
2022/03/22 08:21:59;;;;;;;;;;;;;;;19.16;50.87;102311.53;5065287;28;992;-37
2022/03/22 08:24:25;;;;;;;;;;;;;;;19.10;49.04;102309.22;5072401;28;1974;-37
2022/03/22 08:26:52;;;;;;;;;;;;;;;19.16;48.53;102323.13;5063470;28;1597;-37
2022/03/22 08:29:18;;;;;;;;;;;;;;;19.05;48.88;102314.91;5065046;28;1843;-37
2022/03/22 08:31:46;;;;;;;;;;;;;;;19.03;48.38;102309.63;5065650;28;1604;-38
2022/03/22 08:34:13;;;;;;;;;;;;;;;19.00;49.05;102307.16;5066698;28;1082;-37
2022/03/22 08:36:39;;;;;;;;;;;;;;;19.16;47.95;102307.03;5062910;28;1680;-37
2022/03/22 08:39:06;;;;;;;;;;;;;;;18.94;49.27;102317.41;5061256;28;1753;-37
2022/03/22 08:41:32;;;;;;;;;;;;;;;18.93;47.37;102295.09;5065134;28;1670;-38
2022/03/22 08:43:59;;;;;;;;;;;;;;;19.04;48.17;102295.28;5063649;28;1732;-37
2022/03/22 08:46:25;;;;;;;;;;;;;;;19.12;46.72;102310.88;5063909;28;1964;-37
2022/03/22 08:48:54;;;;;;;;;;;;;;;19.40;46.85;102306.41;5068296;28;1915;-37
2022/03/22 08:51:21;;;;;;;;;;;;;;;19.66;44.90;102300.16;5066456;28;1841;-37
2022/03/22 08:53:47;;;;;;;;;;;;;;;19.97;45.13;102286.53;5055882;28;1727;-37
2022/03/22 08:56:15;;;;;;;;;;;;;;;19.96;45.00;102279.44;5065346;28;1083;-37
2022/03/22 08:58:41;;;;;;;;;;;;;;;19.97;44.03;102287.38;5066843;28;1019;-37
2022/03/22 09:01:08;;;;;;;;;;;;;;;19.95;43.38;102262.44;5065212;28;1811;-37
2022/03/22 09:03:35;;;;;;;;;;;;;;;19.99;43.60;102280.06;5064906;28;1855;-37
2022/03/22 09:06:08;;;;;;;;;;;;;;;19.93;45.48;102250.97;5058229;28;1902;-37
2022/03/22 09:08:34;;;;;;;;;;;;;;;20.02;43.59;102269.13;5063781;28;1147;-37
2022/03/22 09:11:01;;;;;;;;;;;;;;;19.92;44.03;102259.16;5059633;28;1625;-37
2022/03/22 09:13:28;;;;;;;;;;;;;;;19.85;44.33;102251.47;5068192;28;1926;-37
2022/03/22 09:15:55;;;;;;;;;;;;;;;19.90;44.47;102253.03;5064861;28;1803;-37
2022/03/22 09:18:22;;;;;;;;;;;;;;;19.93;44.73;102252.78;5061149;28;1457;-37
2022/03/22 09:20:49;;;;;;;;;;;;;;;19.81;43.69;102241.91;5061386;28;1787;-37
2022/03/22 09:23:19;;;;;;;;;;;;;;;19.76;43.10;102244.06;5073710;28;1542;-37
2022/03/22 09:25:46;;;;;;;;;;;;;;;19.66;45.67;102234.91;5063954;28;1963;-37
2022/03/22 09:28:13;;;;;;;;;;;;;;;19.47;42.98;102230.75;5063786;28;1590;-37
2022/03/22 09:30:41;;;;;;;;;;;;;;;19.45;42.13;102227.31;5064259;28;1239;-37
2022/03/22 09:33:11;;;;;;;;;;;;;;;19.55;43.77;102221.34;5064058;28;1436;-37
2022/03/22 09:35:37;;;;;;;;;;;;;;;19.60;43.39;102240.69;5067416;28;1615;-37
2022/03/22 09:38:04;;;;;;;;;;;;;;;19.48;43.10;102221.75;5063344;28;1014;-37
2022/03/22 09:40:32;;;;;;;;;;;;;;;19.42;43.76;102222.19;5066801;28;1568;-37
2022/03/22 09:42:59;;;;;;;;;;;;;;;19.30;42.03;102214.94;5063532;28;1631;-37
2022/03/22 09:45:26;;;;;;;;;;;;;;;19.31;40.20;102231.91;5062697;28;1906;-37
2022/03/22 09:48:00;;;;;;;;;;;;;;;19.31;40.95;102239.94;5064185;28;1444;-37
2022/03/22 09:53:08;;;;;;;;;;;;;;;19.13;41.27;102209.84;5067706;28;857;-37
2022/03/22 09:55:37;;;;;;;;;;;;;;;19.16;40.47;102214.97;5067508;28;1782;-37
2022/03/22 09:58:03;;;;;;;;;;;;;;;19.13;41.03;102217.88;5057501;28;1631;-37
2022/03/22 10:00:30;;;;;;;;;;;;;;;19.23;40.49;102205.59;5065312;28;1679;-37
2022/03/22 10:02:56;;;;;;;;;;;;;;;19.23;40.65;102198.38;5062615;28;1695;-37
2022/03/22 10:05:26;;;;;;;;;;;;;;;19.23;40.37;102197.53;5066101;28;1906;-37
2022/03/22 10:07:56;;;;;;;;;;;;;;;19.63;41.26;102192.16;5075725;28;1490;-37
2022/03/22 10:10:26;;;;;;;;;;;;;;;19.52;41.94;102195.59;5067118;28;2105;-37
2022/03/22 10:12:59;;;;;;;;;;;;;;;19.54;43.37;102182.94;5066539;28;1608;-37
2022/03/22 10:15:30;;;;;;;;;;;;;;;19.55;44.06;102183.78;5065437;28;1542;-37
2022/03/22 10:18:04;;;;;;;;;;;;;;;19.57;45.30;102176.47;5072646;28;1303;-38
2022/03/22 10:20:39;;;;;;;;;;;;;;;19.55;44.51;102173.03;5056638;28;1540;-37
2022/03/22 10:23:09;;;;;;;;;;;;;;;19.76;44.50;102155.50;5059498;28;1047;-37
2022/03/22 10:25:38;;;;;;;;;;;;;;;19.60;44.03;102162.88;5069545;28;1909;-37
2022/03/22 10:28:11;;;;;;;;;;;;;;;19.57;45.53;102155.88;5068336;28;1591;-37
2022/03/22 10:30:38;;;;;;;;;;;;;;;19.54;45.18;102156.09;5063679;28;1701;-37
2022/03/22 10:33:09;;;;;;;;;;;;;;;19.56;46.59;102154.16;5068399;28;1482;-37
2022/03/22 10:35:38;;;;;;;;;;;;;;;19.58;46.61;102146.00;5062987;28;1216;-37
2022/03/22 10:38:06;;;;;;;;;;;;;;;19.58;47.02;102157.59;5071515;28;1574;-37
2022/03/22 10:40:34;;;;;;;;;;;;;;;19.64;46.71;102149.13;5069549;28;1772;-37
2022/03/22 10:43:12;;;;;;;;;;;;;;;19.67;46.40;102148.03;5072157;28;1568;-37
2022/03/22 10:45:44;;;;;;;;;;;;;;;19.65;47.53;102147.28;5061414;28;1902;-37
2022/03/22 10:48:11;;;;;;;;;;;;;;;19.79;47.06;102133.78;5068188;28;1447;-37
2022/03/22 10:50:44;;;;;;;;;;;;;;;19.91;46.84;102133.91;5061042;28;1241;-37
2022/03/22 10:53:16;;;;;;;;;;;;;;;19.74;48.99;102127.91;5066482;28;1513;-37
2022/03/22 10:55:47;;;;;;;;;;;;;;;19.72;48.38;102129.00;5062986;28;1930;-37
2022/03/22 10:58:35;;;;;;;;;;;;;;;19.69;47.72;102127.31;5059270;28;1854;-37
2022/03/22 11:01:06;;;;;;;;;;;;;;;19.66;48.81;102135.59;5069400;28;1703;-38
2022/03/22 11:03:34;;;;;;;;;;;;;;;19.76;47.95;102134.03;5067259;28;1638;-37
2022/03/22 11:06:03;;;;;;;;;;;;;;;19.70;49.07;102134.44;5067029;28;1967;-36
2022/03/22 11:08:30;;;;;;;;;;;;;;;19.76;48.50;102127.81;5069116;28;1487;-37
2022/03/22 11:10:56;;;;;;;;;;;;;;;19.80;48.45;102129.31;5065273;28;1728;-37
2022/03/22 11:13:25;;;;;;;;;;;;;;;19.60;48.65;102120.78;5063537;28;1951;-37
2022/03/22 11:15:54;;;;;;;;;;;;;;;19.54;48.98;102118.53;5062965;28;1747;-37
2022/03/22 11:18:23;;;;;;;;;;;;;;;19.65;48.89;102123.13;5065313;28;1787;-35
2022/03/22 11:20:58;;;;;;;;;;;;;;;19.61;48.94;102121.63;5069394;28;1613;-35
2022/03/22 11:23:28;;;;;;;;;;;;;;;19.69;49.12;102121.97;5072190;28;1536;-36
2022/03/22 11:25:57;;;;;;;;;;;;;;;19.61;50.74;102124.31;5070821;28;1898;-36
2022/03/22 11:28:24;;;;;;;;;;;;;;;19.54;50.97;102118.53;5069277;28;1950;-37
2022/03/22 11:34:14;;;;;;;;;;;;;;;19.66;50.87;102108.78;5066005;28;2118;-39
2022/03/22 11:36:55;;;;;;;;;;;;;;;19.55;50.91;102108.66;5069896;28;1732;-39
2022/03/22 11:42:15;;;;;;;;;;;;;;;19.48;51.66;102098.34;5070770;28;1554;-39
2022/03/22 11:42:21;;;;;;;;;;;;;;;19.42;51.04;102076.47;5072587;28;1398;-39
2022/03/22 11:44:57;;;;;;;;;;;;;;;19.44;51.41;102091.47;5059025;28;1890;-39
2022/03/22 11:47:27;;;;;;;;;;;;;;;19.43;52.30;102089.75;5069584;28;1987;-39
2022/03/22 11:50:00;;;;;;;;;;;;;;;19.40;51.84;102095.34;5063870;28;1404;-39
2022/03/22 11:52:28;;;;;;;;;;;;;;;19.48;50.01;102086.75;5073282;28;1254;-39
2022/03/22 11:54:58;;;;;;;;;;;;;;;19.52;50.91;102060.56;5067930;28;1687;-39
2022/03/22 11:57:28;;;;;;;;;;;;;;;19.37;51.88;102074.06;5068884;28;1652;-39
2022/03/22 11:59:55;;;;;;;;;;;;;;;19.39;51.74;102069.47;5068790;28;1805;-38
2022/03/22 12:02:22;;;;;;;;;;;;;;;19.38;51.70;102062.41;5068032;28;1675;-39
2022/03/22 12:04:54;;;;;;;;;;;;;;;19.34;51.91;102058.22;5070184;28;1517;-39
2022/03/22 12:07:37;;;;;;;;;;;;;;;19.36;50.69;102047.34;5072752;28;1905;-39
2022/03/22 12:10:08;;;;;;;;;;;;;;;19.31;51.92;102063.78;5071793;28;1971;-39
2022/03/22 12:12:35;;;;;;;;;;;;;;;19.27;51.69;102071.16;5066997;28;1840;-39
2022/03/22 12:15:04;;;;;;;;;;;;;;;19.22;52.09;102061.75;5064999;28;1538;-40
2022/03/22 12:17:31;;;;;;;;;;;;;;;19.21;52.20;102082.31;5064750;28;1648;-39
2022/03/22 12:20:01;;;;;;;;;;;;;;;19.21;52.30;102052.81;5072047;28;2015;-39
2022/03/22 12:22:34;;;;;;;;;;;;;;;19.25;52.60;102048.09;5067556;28;1607;-39
2022/03/22 12:25:06;;;;;;;;;;;;;;;19.36;52.62;102066.13;5065028;28;1601;-39
2022/03/22 12:27:34;;;;;;;;;;;;;;;19.28;52.26;102047.91;5074671;28;2041;-39
2022/03/22 12:30:00;;;;;;;;;;;;;;;19.25;52.39;102051.63;5058503;28;1391;-39
2022/03/22 12:32:30;;;;;;;;;;;;;;;19.25;52.49;102054.31;5064535;28;1462;-39
2022/03/22 12:35:00;;;;;;;;;;;;;;;19.19;52.47;102038.66;5073669;28;1584;-39
2022/03/22 12:37:35;;;;;;;;;;;;;;;19.17;52.84;102059.34;5071541;28;1650;-38
2022/03/22 12:40:03;;;;;;;;;;;;;;;19.15;52.41;102053.25;5068083;28;1697;-39
2022/03/22 12:42:32;;;;;;;;;;;;;;;19.74;51.62;102042.03;5070398;28;1850;-38
2022/03/22 12:45:03;;;;;;;;;;;;;;;20.34;50.28;102058.31;5057606;28;1907;-38
2022/03/22 12:47:31;;;;;;;;;;;;;;;20.78;49.74;102057.72;5065824;28;1906;-38
2022/03/22 12:50:01;;;;;;;;;;;;;;;21.22;48.27;102042.69;5067827;28;1636;-38
2022/03/22 12:52:31;;;;;;;;;;;;;;;21.40;48.00;102058.38;5067031;28;1739;-38
2022/03/22 12:54:59;;;;;;;;;;;;;;;21.33;48.68;102052.63;5063068;28;1708;-38
2022/03/22 12:57:30;;;;;;;;;;;;;;;21.46;49.78;102057.94;5070285;28;1846;-39
2022/03/22 12:59:57;;;;;;;;;;;;;;;21.59;48.70;102036.31;5067461;28;1934;-38
2022/03/22 13:02:23;;;;;;;;;;;;;;;21.64;49.15;102050.22;5061904;28;1614;-38
2022/03/22 13:04:53;;;;;;;;;;;;;;;21.73;48.89;102059.44;5071365;28;1501;-39
2022/03/22 13:07:23;;;;;;;;;;;;;;;21.77;48.26;102042.06;5065246;28;1981;-38
2022/03/22 13:12:39;;;;;;;;;;;;;;;20.94;49.88;102073.53;5070609;28;1948;-38
2022/03/22 13:15:08;;;;;;;;;;;;;;;20.27;52.19;102058.78;5072500;28;1661;-38
2022/03/22 13:17:36;;;;;;;;;;;;;;;19.89;52.06;102060.69;5068487;28;1638;-39
2022/03/22 13:20:05;;;;;;;;;;;;;;;19.59;52.61;102061.84;5065777;28;1777;-38
2022/03/22 13:22:34;;;;;;;;;;;;;;;19.46;53.50;102072.59;5069397;28;1866;-38
2022/03/22 13:25:04;;;;;;;;;;;;;;;19.36;53.95;102087.59;5068205;28;2035;-38
2022/03/22 13:27:31;;;;;;;;;;;;;;;19.33;54.04;102077.94;5065185;28;1926;-39
2022/03/22 13:30:00;;;;;;;;;;;;;;;19.25;54.66;102081.13;5064136;28;1484;-38
2022/03/22 13:32:30;;;;;;;;;;;;;;;19.20;54.84;102085.09;5062485;28;1558;-38
2022/03/22 13:35:01;;;;;;;;;;;;;;;19.20;54.40;102069.00;5065473;28;1166;-38
2022/03/22 13:37:28;;;;;;;;;;;;;;;19.15;54.63;102076.53;5066071;28;1081;-38